createdAt,value
2023-03-03T00:00:09.949Z,13.00
2023-03-03T00:02:40.428Z,12.53
2023-03-03T00:05:13.170Z,12.63
2023-03-03T00:07:49.032Z,12.97
2023-03-03T00:10:19.669Z,12.77
2023-03-03T00:12:51.182Z,12.90
2023-03-03T00:15:25.114Z,12.63
2023-03-03T00:17:55.841Z,12.97
2023-03-03T00:20:37.125Z,13.30
2023-03-03T00:23:38.162Z,13.63
2023-03-03T00:26:23.812Z,13.43
2023-03-03T00:28:57.144Z,13.43
2023-03-03T00:31:36.261Z,15.87
2023-03-03T00:34:21.555Z,14.10
2023-03-03T00:36:56.297Z,13.40
2023-03-03T00:39:29.894Z,11.60
2023-03-03T00:42:03.391Z,11.77
2023-03-03T00:44:53.563Z,12.37
2023-03-03T00:47:32.799Z,11.93
2023-03-03T00:50:21.857Z,12.10
2023-03-03T00:53:07.269Z,11.93
2023-03-03T00:55:39.422Z,12.43
2023-03-03T00:58:10.200Z,12.30
2023-03-03T01:00:41.709Z,12.63
2023-03-03T01:03:18.305Z,12.67
2023-03-03T01:05:50.377Z,12.00
2023-03-03T01:08:22.267Z,13.67
2023-03-03T01:10:55.815Z,12.57
2023-03-03T01:13:29.210Z,13.93
2023-03-03T01:16:01.528Z,13.30
2023-03-03T01:18:34.160Z,13.53
2023-03-03T01:21:05.593Z,13.73
2023-03-03T01:23:36.774Z,12.53
2023-03-03T01:26:07.894Z,13.00
2023-03-03T01:28:38.557Z,13.73
2023-03-03T01:31:09.794Z,13.30
2023-03-03T01:33:40.435Z,13.40
2023-03-03T01:36:12.680Z,12.93
2023-03-03T01:38:44.001Z,13.27
2023-03-03T01:41:16.377Z,13.13
2023-03-03T01:43:51.443Z,13.40
2023-03-03T01:46:33.769Z,13.03
2023-03-03T01:49:09.082Z,12.23
2023-03-03T01:51:53.252Z,12.70
2023-03-03T01:54:26.840Z,12.73
2023-03-03T01:57:00.522Z,13.70
2023-03-03T01:59:34.081Z,12.65
2023-03-03T02:02:05.930Z,13.10
2023-03-03T02:04:38.375Z,13.60
2023-03-03T02:07:11.610Z,13.83
2023-03-03T02:10:00.259Z,13.43
2023-03-03T02:12:36.694Z,13.67
2023-03-03T02:15:25.480Z,13.83
2023-03-03T02:18:06.854Z,14.00
2023-03-03T02:20:55.433Z,13.53
2023-03-03T02:23:43.392Z,14.03
2023-03-03T02:26:24.482Z,12.90
2023-03-03T02:28:55.686Z,12.80
2023-03-03T02:31:29.853Z,14.13
2023-03-03T02:34:01.332Z,13.97
2023-03-03T02:36:37.727Z,13.20
2023-03-03T02:39:23.533Z,14.47
2023-03-03T02:42:16.511Z,14.50
2023-03-03T02:44:47.440Z,13.67
2023-03-03T02:47:18.031Z,13.80
2023-03-03T02:49:48.521Z,13.50
2023-03-03T02:52:19.114Z,13.17
2023-03-03T02:54:51.891Z,13.80
2023-03-03T02:57:22.453Z,14.23
2023-03-03T02:59:53.170Z,14.40
2023-03-03T03:02:23.813Z,13.50
2023-03-03T03:04:55.487Z,14.07
2023-03-03T03:07:26.728Z,14.60
2023-03-03T03:09:57.266Z,14.83
2023-03-03T03:12:30.184Z,13.63
2023-03-03T03:15:00.994Z,14.77
2023-03-03T03:17:32.101Z,13.73
2023-03-03T03:20:02.690Z,13.67
2023-03-03T03:22:33.349Z,13.27
2023-03-03T03:25:05.368Z,13.63
2023-03-03T03:27:36.284Z,14.43
2023-03-03T03:30:09.307Z,14.17
2023-03-03T03:32:39.957Z,13.68
2023-03-03T03:35:11.437Z,12.50
2023-03-03T03:37:42.273Z,14.40
2023-03-03T03:40:14.987Z,13.40
2023-03-03T03:42:45.400Z,13.00
2023-03-03T03:45:15.917Z,14.00
2023-03-03T03:47:48.107Z,14.47
2023-03-03T03:50:18.772Z,15.47
2023-03-03T03:52:49.353Z,15.03
2023-03-03T03:55:20.058Z,15.00
2023-03-03T03:57:50.616Z,15.77
2023-03-03T04:00:21.461Z,14.67
2023-03-03T04:02:52.712Z,15.30
2023-03-03T04:05:23.532Z,14.40
2023-03-03T04:07:53.954Z,14.33
2023-03-03T04:10:24.712Z,13.50
2023-03-03T04:12:55.254Z,12.53
2023-03-03T04:15:25.939Z,12.53
2023-03-03T04:17:56.829Z,12.37
2023-03-03T04:20:27.872Z,11.47
2023-03-03T04:22:58.572Z,11.03
2023-03-03T04:25:29.197Z,11.20
2023-03-03T04:27:59.671Z,11.27
2023-03-03T04:30:30.353Z,11.77
2023-03-03T04:33:00.897Z,11.87
2023-03-03T04:35:31.420Z,12.30
2023-03-03T04:38:05.863Z,13.00
2023-03-03T04:40:36.373Z,12.77
2023-03-03T04:43:06.964Z,11.13
2023-03-03T04:45:37.886Z,12.17
2023-03-03T04:48:10.057Z,12.97
2023-03-03T04:50:41.061Z,13.77
2023-03-03T04:53:12.104Z,14.27
2023-03-03T04:55:42.633Z,15.20
2023-03-03T04:58:13.809Z,13.53
2023-03-03T05:00:44.226Z,13.07
2023-03-03T05:03:14.841Z,12.60
2023-03-03T05:05:47.219Z,14.03
2023-03-03T05:08:19.410Z,14.40
2023-03-03T05:10:55.303Z,14.40
2023-03-03T05:13:27.282Z,14.87
2023-03-03T05:15:58.178Z,16.83
2023-03-03T05:18:30.707Z,15.67
2023-03-03T05:21:01.214Z,16.77
2023-03-03T05:23:32.074Z,15.47
2023-03-03T05:26:02.727Z,14.43
2023-03-03T05:28:34.763Z,15.93
2023-03-03T05:31:05.439Z,17.30
2023-03-03T05:33:35.957Z,16.57
2023-03-03T05:36:06.896Z,15.93
2023-03-03T05:38:43.033Z,17.00
2023-03-03T05:41:13.712Z,14.50
2023-03-03T05:43:45.946Z,15.33
2023-03-03T05:46:16.454Z,13.83
2023-03-03T05:48:53.829Z,14.53
2023-03-03T05:51:19.507Z,12.97
2023-03-03T05:53:50.229Z,13.57
2023-03-03T05:56:20.668Z,13.60
2023-03-03T05:58:51.257Z,13.57
2023-03-03T06:01:22.213Z,12.33
2023-03-03T06:03:52.883Z,13.37
2023-03-03T06:06:23.308Z,11.87
2023-03-03T06:08:56.201Z,12.77
2023-03-03T06:11:26.245Z,12.50
2023-03-03T06:13:59.377Z,11.97
2023-03-03T06:16:30.226Z,11.20
2023-03-03T06:19:01.373Z,10.97
2023-03-03T06:21:32.392Z,10.47
2023-03-03T06:24:02.917Z,9.90
2023-03-03T06:26:33.862Z,9.90
2023-03-03T06:29:04.410Z,10.77
2023-03-03T06:31:35.773Z,10.80
2023-03-03T06:34:06.576Z,10.60
2023-03-03T06:36:38.449Z,9.30
2023-03-03T06:39:08.946Z,10.23
2023-03-03T06:41:39.976Z,10.60
2023-03-03T06:44:12.231Z,11.43
2023-03-03T06:46:42.660Z,11.23
2023-03-03T06:49:13.272Z,11.47
2023-03-03T06:51:45.865Z,10.93
2023-03-03T06:54:21.906Z,10.23
2023-03-03T06:56:55.643Z,10.90
2023-03-03T06:59:28.795Z,11.50
2023-03-03T07:01:59.539Z,11.33
2023-03-03T07:04:33.823Z,10.80
2023-03-03T07:07:25.720Z,11.50
2023-03-03T07:09:57.637Z,11.27
2023-03-03T07:12:31.178Z,13.00
2023-03-03T07:15:06.345Z,13.37
2023-03-03T07:17:39.270Z,13.00
2023-03-03T07:20:27.605Z,13.17
2023-03-03T07:22:59.102Z,12.20
2023-03-03T07:25:36.439Z,13.10
2023-03-03T07:28:29.891Z,12.03
2023-03-03T07:31:00.683Z,11.93
2023-03-03T07:33:34.398Z,13.43
2023-03-03T07:36:07.413Z,12.60
2023-03-03T07:38:45.468Z,13.03
2023-03-03T07:41:23.534Z,14.27
2023-03-03T07:44:02.534Z,13.43
2023-03-03T07:46:49.305Z,13.67
2023-03-03T07:49:31.826Z,14.70
2023-03-03T07:52:03.421Z,13.23
2023-03-03T07:54:40.356Z,12.40
2023-03-03T07:57:21.496Z,11.80
2023-03-03T08:00:01.604Z,11.80
2023-03-03T08:03:05.219Z,11.50
2023-03-03T08:05:43.533Z,10.57
2023-03-03T08:08:23.739Z,10.77
2023-03-03T08:10:56.249Z,10.97
2023-03-03T08:13:38.586Z,10.40
2023-03-03T08:16:15.062Z,10.83
2023-03-03T08:18:51.505Z,12.20
2023-03-03T08:21:25.041Z,11.80
2023-03-03T08:23:55.543Z,12.37
2023-03-03T08:26:27.484Z,12.47
2023-03-03T08:28:58.085Z,12.03
2023-03-03T08:31:40.703Z,10.73
2023-03-03T08:34:03.879Z,10.70
2023-03-03T08:36:35.239Z,11.17
2023-03-03T08:39:06.723Z,11.53
2023-03-03T08:41:37.238Z,9.27
2023-03-03T08:44:08.222Z,8.50
2023-03-03T08:46:39.279Z,7.90
2023-03-03T08:49:09.947Z,8.37
2023-03-03T08:51:41.927Z,9.80
2023-03-03T08:54:12.606Z,9.27
2023-03-03T08:56:43.347Z,8.43
2023-03-03T08:59:14.332Z,7.57
2023-03-03T09:01:45.572Z,8.27
2023-03-03T09:04:16.191Z,9.43
2023-03-03T09:06:46.852Z,10.00
2023-03-03T09:09:17.420Z,8.57
2023-03-03T09:11:48.104Z,8.90
2023-03-03T09:14:21.149Z,14.83
2023-03-03T09:16:56.429Z,17.77
2023-03-03T09:19:32.567Z,18.60
2023-03-03T09:22:24.102Z,19.60
2023-03-03T09:25:00.306Z,14.40
2023-03-03T09:27:33.354Z,11.53
2023-03-03T09:30:07.996Z,12.97
2023-03-03T09:32:42.993Z,14.85
2023-03-03T09:35:37.577Z,12.63
2023-03-03T09:38:32.355Z,12.20
2023-03-03T09:41:11.860Z,8.87
2023-03-03T09:44:12.278Z,12.43
2023-03-03T09:47:22.177Z,11.50
2023-03-03T09:49:56.544Z,13.13
2023-03-03T09:52:53.746Z,15.90
2023-03-03T09:55:30.590Z,15.00
2023-03-03T09:58:26.632Z,14.97
2023-03-03T10:01:22.820Z,12.63
2023-03-03T10:04:30.084Z,15.73
2023-03-03T10:07:24.607Z,16.23
2023-03-03T10:10:24.253Z,10.00
2023-03-03T10:13:34.548Z,8.15
2023-03-03T10:16:14.375Z,9.33
2023-03-03T10:18:54.120Z,10.73
2023-03-03T10:21:42.632Z,11.45
2023-03-03T10:24:43.733Z,15.83
2023-03-03T10:27:19.761Z,16.97
2023-03-03T10:29:57.300Z,16.73
2023-03-03T10:32:52.544Z,17.93
2023-03-03T10:35:26.300Z,14.97
2023-03-03T10:38:02.898Z,13.20
2023-03-03T10:40:40.341Z,13.70
2023-03-03T10:43:32.323Z,14.33
2023-03-03T10:46:23.256Z,16.27
2023-03-03T10:49:02.575Z,16.77
2023-03-03T10:51:55.245Z,16.77
2023-03-03T10:54:30.570Z,15.28
2023-03-03T10:57:13.409Z,14.07
2023-03-03T11:00:17.906Z,19.30
2023-03-03T11:03:12.149Z,14.63
2023-03-03T11:05:54.259Z,13.98
2023-03-03T11:08:46.130Z,13.30
2023-03-03T11:11:32.032Z,11.95
2023-03-03T11:14:20.762Z,12.77
2023-03-03T11:16:54.342Z,11.33
2023-03-03T11:19:53.789Z,12.70
2023-03-03T11:22:42.063Z,11.53
2023-03-03T11:25:34.561Z,14.13
2023-03-03T11:28:17.326Z,13.63
2023-03-03T11:31:14.947Z,15.73
2023-03-03T11:33:54.608Z,14.13
2023-03-03T11:36:31.288Z,13.50
2023-03-03T11:39:15.966Z,13.00
2023-03-03T11:42:01.334Z,13.43
2023-03-03T11:44:44.834Z,13.13
2023-03-03T11:47:31.797Z,11.77
2023-03-03T11:50:11.169Z,13.93
2023-03-03T11:52:56.899Z,13.28
2023-03-03T11:55:30.481Z,12.37
2023-03-03T11:58:25.454Z,12.43
2023-03-03T12:01:20.064Z,12.43
2023-03-03T12:03:56.079Z,15.18
2023-03-03T12:06:41.659Z,16.15
2023-03-03T12:09:28.104Z,17.90
2023-03-03T12:12:19.751Z,18.30
2023-03-03T12:15:06.208Z,17.30
2023-03-03T12:18:08.122Z,18.50
2023-03-03T12:21:03.145Z,17.40
2023-03-03T12:23:54.978Z,21.33
2023-03-03T12:26:50.899Z,18.37
2023-03-03T12:29:46.900Z,22.90
2023-03-03T12:32:23.229Z,24.73
2023-03-03T12:35:06.055Z,20.07
2023-03-03T12:37:51.746Z,20.10
2023-03-03T12:40:29.034Z,16.48
2023-03-03T12:43:19.171Z,20.70
2023-03-03T12:46:19.815Z,19.57
2023-03-03T12:48:50.386Z,20.00
2023-03-03T12:51:32.696Z,20.27
2023-03-03T12:54:37.370Z,20.88
2023-03-03T12:57:10.927Z,18.57
2023-03-03T12:59:53.369Z,17.77
2023-03-03T13:02:49.609Z,15.60
2023-03-03T13:05:44.687Z,17.03
2023-03-03T13:08:40.714Z,15.33
2023-03-03T13:11:36.077Z,16.62
2023-03-03T13:14:42.722Z,15.33
2023-03-03T13:17:22.375Z,14.37
2023-03-03T13:20:02.594Z,11.60
2023-03-03T13:22:36.388Z,13.45
2023-03-03T13:25:32.035Z,13.28
2023-03-03T13:28:09.062Z,13.77
2023-03-03T13:30:45.769Z,12.75
2023-03-03T13:33:31.805Z,13.18
2023-03-03T13:36:14.451Z,13.35
2023-03-03T13:38:50.834Z,15.13
2023-03-03T13:41:50.283Z,14.57
2023-03-03T13:44:33.561Z,14.23
2023-03-03T13:47:16.972Z,13.88
2023-03-03T13:50:02.980Z,14.27
2023-03-03T13:52:36.591Z,14.43
2023-03-03T13:55:31.599Z,14.40
2023-03-03T13:58:05.144Z,17.30
2023-03-03T14:00:43.125Z,17.27
2023-03-03T14:03:29.583Z,14.95
2023-03-03T14:06:18.558Z,14.05
2023-03-03T14:09:10.250Z,14.05
2023-03-03T14:11:44.264Z,13.47
2023-03-03T14:14:36.308Z,14.33
2023-03-03T14:17:31.297Z,14.10
2023-03-03T14:20:21.501Z,16.93
2023-03-03T14:23:00.952Z,16.48
2023-03-03T14:25:57.788Z,15.63
2023-03-03T14:28:30.992Z,13.97
2023-03-03T14:31:05.736Z,13.25
2023-03-03T14:33:36.258Z,14.23
2023-03-03T14:36:11.030Z,13.10
2023-03-03T14:38:45.947Z,14.07
2023-03-03T14:41:19.304Z,15.10
2023-03-03T14:44:18.716Z,16.20
2023-03-03T14:47:09.253Z,15.67
2023-03-03T14:49:41.156Z,17.62
2023-03-03T14:52:17.947Z,16.95
2023-03-03T14:54:51.591Z,14.97
2023-03-03T14:57:26.678Z,14.03
2023-03-03T15:00:16.699Z,14.70
2023-03-03T15:03:05.983Z,16.03
2023-03-03T15:05:36.783Z,14.07
2023-03-03T15:08:10.320Z,14.75
2023-03-03T15:10:44.243Z,15.03
2023-03-03T15:13:24.070Z,13.80
2023-03-03T15:16:09.510Z,13.18
2023-03-03T15:19:16.404Z,15.10
2023-03-03T15:21:59.267Z,13.80
2023-03-03T15:24:42.329Z,13.07
2023-03-03T15:27:21.661Z,12.50
2023-03-03T15:30:08.367Z,12.58
2023-03-03T15:32:47.896Z,13.03
2023-03-03T15:35:38.470Z,12.03
2023-03-03T15:38:14.608Z,12.53
2023-03-03T15:40:52.063Z,12.68
2023-03-03T15:43:46.629Z,12.58
2023-03-03T15:46:41.898Z,12.90
2023-03-03T15:49:32.905Z,12.30
2023-03-03T15:52:23.726Z,12.75
2023-03-03T15:55:30.728Z,12.25
2023-03-03T15:58:04.254Z,12.30
2023-03-03T16:00:55.284Z,12.80
2023-03-03T16:03:31.481Z,12.23
2023-03-03T16:06:13.905Z,12.47
2023-03-03T16:09:04.406Z,13.38
2023-03-03T16:11:56.352Z,12.63
2023-03-03T16:14:51.408Z,11.73
2023-03-03T16:17:40.426Z,11.75
2023-03-03T16:20:33.047Z,12.77
2023-03-03T16:23:23.224Z,12.03
2023-03-03T16:26:18.597Z,12.20
2023-03-03T16:28:52.073Z,11.93
2023-03-03T16:31:32.222Z,12.70
2023-03-03T16:34:18.125Z,11.47
2023-03-03T16:37:17.179Z,12.25
2023-03-03T16:39:56.335Z,12.37
2023-03-03T16:42:34.774Z,12.47
2023-03-03T16:45:31.980Z,13.00
2023-03-03T16:48:27.047Z,12.93
2023-03-03T16:51:03.805Z,13.40
2023-03-03T16:54:04.898Z,14.10
2023-03-03T16:56:58.068Z,12.47
2023-03-03T16:59:47.071Z,12.50
2023-03-03T17:02:38.961Z,13.43
2023-03-03T17:05:18.397Z,13.63
2023-03-03T17:08:03.679Z,13.55
2023-03-03T17:10:40.071Z,13.23
2023-03-03T17:13:26.771Z,14.30
2023-03-03T17:16:21.932Z,13.57
2023-03-03T17:19:09.097Z,13.93
2023-03-03T17:22:02.173Z,14.17
2023-03-03T17:24:47.484Z,13.55
2023-03-03T17:27:40.225Z,14.70
2023-03-03T17:30:26.727Z,13.97
2023-03-03T17:33:06.328Z,14.00
2023-03-03T17:35:50.044Z,14.45
2023-03-03T17:38:58.306Z,14.85
2023-03-03T17:41:35.749Z,14.03
2023-03-03T17:44:18.351Z,14.50
2023-03-03T17:46:53.752Z,14.20
2023-03-03T17:49:45.208Z,14.83
2023-03-03T17:52:33.721Z,14.95
2023-03-03T17:55:26.947Z,14.60
2023-03-03T17:58:21.738Z,15.55
2023-03-03T18:00:55.308Z,16.02
2023-03-03T18:03:29.762Z,15.05
2023-03-03T18:06:32.264Z,14.70
2023-03-03T18:09:26.408Z,15.08
2023-03-03T18:12:29.257Z,14.47
2023-03-03T18:15:22.403Z,14.77
2023-03-03T18:18:01.802Z,13.98
2023-03-03T18:20:50.299Z,14.00
2023-03-03T18:23:37.407Z,13.58
2023-03-03T18:26:33.489Z,12.97
2023-03-03T18:29:19.483Z,13.57
2023-03-03T18:31:52.999Z,14.10
2023-03-03T18:34:43.960Z,14.85
2023-03-03T18:37:38.560Z,15.50
2023-03-03T18:40:13.706Z,15.03
2023-03-03T18:42:45.947Z,15.00
2023-03-03T18:45:24.552Z,14.23
2023-03-03T18:48:10.645Z,16.53
2023-03-03T18:50:49.329Z,14.45
2023-03-03T18:53:30.301Z,14.87
2023-03-03T18:56:08.460Z,15.87
2023-03-03T18:58:43.850Z,16.27
2023-03-03T19:01:36.273Z,14.75
2023-03-03T19:04:19.707Z,14.80
2023-03-03T19:06:56.079Z,14.55
2023-03-03T19:09:46.912Z,15.08
2023-03-03T19:12:20.255Z,15.00
2023-03-03T19:14:51.895Z,15.38
2023-03-03T19:17:29.421Z,14.83
2023-03-03T19:20:14.367Z,16.00
2023-03-03T19:22:47.606Z,15.87
2023-03-03T19:25:28.527Z,14.77
2023-03-03T19:28:26.585Z,14.05
2023-03-03T19:31:08.980Z,16.93
2023-03-03T19:33:56.928Z,16.13
2023-03-03T19:36:31.495Z,16.80
2023-03-03T19:39:17.710Z,15.73
2023-03-03T19:42:20.053Z,14.83
2023-03-03T19:45:05.564Z,14.53
2023-03-03T19:47:46.239Z,14.65
2023-03-03T19:50:25.909Z,13.28
2023-03-03T19:53:22.102Z,13.80
2023-03-03T19:56:07.395Z,12.63
2023-03-03T19:58:59.736Z,13.93
2023-03-03T20:01:53.018Z,13.25
2023-03-03T20:04:35.660Z,13.28
2023-03-03T20:07:27.770Z,13.27
2023-03-03T20:10:21.949Z,13.53
2023-03-03T20:13:12.266Z,13.18
2023-03-03T20:15:53.650Z,13.22
2023-03-03T20:18:29.782Z,13.73
2023-03-03T20:21:19.696Z,12.13
2023-03-03T20:24:02.409Z,12.25
2023-03-03T20:26:44.880Z,12.40
2023-03-03T20:29:33.394Z,12.07
2023-03-03T20:32:22.334Z,14.07
2023-03-03T20:35:04.679Z,9.63
2023-03-03T20:37:50.791Z,8.98
2023-03-03T20:40:48.024Z,8.50
2023-03-03T20:43:27.626Z,8.27
2023-03-03T20:46:19.457Z,9.20
2023-03-03T20:48:56.236Z,9.07
2023-03-03T20:51:35.683Z,8.60
2023-03-03T20:54:24.463Z,8.78
2023-03-03T20:57:03.570Z,9.53
2023-03-03T20:59:37.146Z,9.23
2023-03-03T21:02:31.996Z,10.13
2023-03-03T21:05:22.360Z,10.98
2023-03-03T21:07:58.222Z,11.68
2023-03-03T21:10:31.597Z,11.60
2023-03-03T21:13:22.039Z,10.48
2023-03-03T21:15:58.509Z,10.77
2023-03-03T21:18:31.840Z,10.93
2023-03-03T21:21:04.530Z,10.90
2023-03-03T21:23:36.491Z,11.13
2023-03-03T21:26:06.902Z,12.07
2023-03-03T21:28:37.811Z,10.45
2023-03-03T21:31:18.010Z,10.83
2023-03-03T21:34:00.326Z,10.60
2023-03-03T21:36:40.327Z,12.15
2023-03-03T21:39:30.421Z,11.85
2023-03-03T21:42:11.984Z,12.30
2023-03-03T21:44:50.343Z,12.03
2023-03-03T21:47:24.786Z,11.07
2023-03-03T21:49:55.850Z,11.53
2023-03-03T21:52:26.352Z,12.15
2023-03-03T21:54:57.063Z,12.10
2023-03-03T21:57:32.582Z,11.85
2023-03-03T22:00:00.773Z,11.63
2023-03-03T22:02:31.508Z,12.53
2023-03-03T22:05:03.728Z,13.08
2023-03-03T22:07:34.819Z,10.80
2023-03-03T22:10:08.361Z,11.37
2023-03-03T22:12:38.854Z,12.43
2023-03-03T22:15:11.164Z,12.28
2023-03-03T22:17:43.195Z,11.63
2023-03-03T22:20:16.930Z,11.70
2023-03-03T22:22:47.641Z,10.93
2023-03-03T22:25:18.392Z,11.57
2023-03-03T22:27:48.811Z,11.95
2023-03-03T22:30:20.921Z,10.98
2023-03-03T22:32:54.938Z,11.28
2023-03-03T22:35:27.190Z,11.93
2023-03-03T22:37:59.424Z,11.25
2023-03-03T22:40:31.512Z,10.67
2023-03-03T22:43:03.510Z,11.05
2023-03-03T22:45:37.947Z,11.25
2023-03-03T22:48:09.553Z,11.23
2023-03-03T22:50:45.457Z,12.53
2023-03-03T22:53:16.621Z,12.95
2023-03-03T22:55:47.602Z,13.57
2023-03-03T22:58:22.719Z,13.53
2023-03-03T23:00:56.172Z,15.30
2023-03-03T23:03:26.623Z,16.17
2023-03-03T23:06:03.277Z,14.87
2023-03-03T23:08:33.883Z,16.87
2023-03-03T23:11:04.382Z,16.87
2023-03-03T23:13:35.297Z,16.63
2023-03-03T23:16:06.498Z,16.80
2023-03-03T23:18:38.770Z,17.70
2023-03-03T23:21:09.464Z,18.07
2023-03-03T23:23:40.362Z,17.63
2023-03-03T23:26:10.927Z,18.57
2023-03-03T23:28:41.564Z,19.10
2023-03-03T23:31:13.047Z,18.73
2023-03-03T23:33:43.797Z,19.80
2023-03-03T23:36:15.496Z,19.40
2023-03-03T23:38:45.977Z,18.87
2023-03-03T23:41:16.599Z,19.57
2023-03-03T23:43:47.201Z,19.20
2023-03-03T23:46:19.563Z,19.90
2023-03-03T23:48:50.091Z,18.63
2023-03-03T23:51:20.673Z,19.60
2023-03-03T23:53:51.241Z,19.97
2023-03-03T23:56:21.686Z,19.77
2023-03-03T23:58:52.257Z,20.43
